createdAt,value
2022-11-06T00:00:28.155Z,1011.52
2022-11-06T00:01:28.206Z,1011.50
2022-11-06T00:02:28.196Z,1011.48
2022-11-06T00:03:28.273Z,1011.44
2022-11-06T00:04:28.095Z,1011.44
2022-11-06T00:05:28.096Z,1011.44
2022-11-06T00:06:28.081Z,1011.44
2022-11-06T00:07:28.075Z,1011.45
2022-11-06T00:08:28.073Z,1011.43
2022-11-06T00:09:28.049Z,1011.49
2022-11-06T00:10:28.036Z,1011.51
2022-11-06T00:11:28.031Z,1011.53
2022-11-06T00:12:28.030Z,1011.50
2022-11-06T00:13:28.032Z,1011.52
2022-11-06T00:14:27.991Z,1011.47
2022-11-06T00:15:28.010Z,1011.49
2022-11-06T00:16:27.964Z,1011.47
2022-11-06T00:17:27.958Z,1011.47
2022-11-06T00:18:27.956Z,1011.45
2022-11-06T00:19:27.950Z,1011.47
2022-11-06T00:20:27.921Z,1011.45
2022-11-06T00:21:27.910Z,1011.51
2022-11-06T00:22:27.900Z,1011.49
2022-11-06T00:23:27.907Z,1011.47
2022-11-06T00:24:27.880Z,1011.49
2022-11-06T00:25:27.880Z,1011.50
2022-11-06T00:26:27.853Z,1011.53
2022-11-06T00:27:27.893Z,1011.54
2022-11-06T00:28:27.875Z,1011.51
2022-11-06T00:29:27.823Z,1011.46
2022-11-06T00:30:27.814Z,1011.51
2022-11-06T00:31:27.792Z,1011.50
2022-11-06T00:32:27.785Z,1011.53
2022-11-06T00:33:27.798Z,1011.51
2022-11-06T00:34:27.771Z,1011.54
2022-11-06T00:35:27.751Z,1011.49
2022-11-06T00:36:27.760Z,1011.47
2022-11-06T00:37:27.732Z,1011.49
2022-11-06T00:38:27.724Z,1011.50
2022-11-06T00:39:27.732Z,1011.51
2022-11-06T00:40:27.698Z,1011.51
2022-11-06T00:41:27.698Z,1011.47
2022-11-06T00:42:27.708Z,1011.48
2022-11-06T00:43:27.663Z,1011.42
2022-11-06T00:44:27.759Z,1011.45
2022-11-06T00:45:27.644Z,1011.44
2022-11-06T00:46:27.626Z,1011.46
2022-11-06T00:47:27.627Z,1011.43
2022-11-06T00:48:27.596Z,1011.46
2022-11-06T00:49:27.629Z,1011.47
2022-11-06T00:50:27.588Z,1011.53
2022-11-06T00:51:27.598Z,1011.52
2022-11-06T00:52:27.649Z,1011.50
2022-11-06T00:53:27.554Z,1011.52
2022-11-06T00:54:27.551Z,1011.53
2022-11-06T00:55:27.526Z,1011.55
2022-11-06T00:56:27.520Z,1011.57
2022-11-06T00:57:27.498Z,1011.59
2022-11-06T00:58:27.492Z,1011.59
2022-11-06T00:59:27.496Z,1011.64
2022-11-06T01:00:28.481Z,1011.63
2022-11-06T01:01:27.657Z,1011.63
2022-11-06T01:02:27.597Z,1011.63
2022-11-06T01:03:27.440Z,1011.57
2022-11-06T01:04:27.433Z,1011.51
2022-11-06T01:05:27.420Z,1011.50
2022-11-06T01:06:27.417Z,1011.50
2022-11-06T01:07:27.384Z,1011.51
2022-11-06T01:08:27.374Z,1011.59
2022-11-06T01:09:27.543Z,1011.60
2022-11-06T01:10:27.355Z,1011.61
2022-11-06T01:11:27.345Z,1011.62
2022-11-06T01:12:27.340Z,1011.69
2022-11-06T01:13:27.317Z,1011.66
2022-11-06T01:14:27.324Z,1011.67
2022-11-06T01:15:27.294Z,1011.58
2022-11-06T01:16:27.327Z,1011.55
2022-11-06T01:17:27.287Z,1011.52
2022-11-06T01:18:27.263Z,1011.48
2022-11-06T01:19:27.258Z,1011.45
2022-11-06T01:20:27.267Z,1011.42
2022-11-06T01:21:27.236Z,1011.43
2022-11-06T01:22:27.223Z,1011.41
2022-11-06T01:23:27.231Z,1011.39
2022-11-06T01:24:27.315Z,1011.36
2022-11-06T01:25:27.210Z,1011.35
2022-11-06T01:26:37.651Z,1011.35
2022-11-06T01:27:28.168Z,1011.38
2022-11-06T01:28:27.171Z,1011.40
2022-11-06T01:29:27.140Z,1011.35
2022-11-06T01:30:27.154Z,1011.37
2022-11-06T01:31:27.120Z,1011.40
2022-11-06T01:32:27.126Z,1011.33
2022-11-06T01:33:27.112Z,1011.32
2022-11-06T01:34:27.085Z,1011.28
2022-11-06T01:35:27.085Z,1011.28
2022-11-06T01:36:27.063Z,1011.29
2022-11-06T01:37:27.059Z,1011.27
2022-11-06T01:38:27.066Z,1011.27
2022-11-06T01:39:27.035Z,1011.28
2022-11-06T01:40:27.054Z,1011.23
2022-11-06T01:41:27.026Z,1011.20
2022-11-06T01:42:27.014Z,1011.16
2022-11-06T01:43:26.983Z,1011.11
2022-11-06T01:44:26.974Z,1011.09
2022-11-06T01:45:27.017Z,1011.09
2022-11-06T01:46:26.945Z,1011.08
2022-11-06T01:47:26.941Z,1011.08
2022-11-06T01:48:27.037Z,1011.04
2022-11-06T01:49:26.920Z,1011.09
2022-11-06T01:50:26.930Z,1011.10
2022-11-06T01:51:26.896Z,1011.08
2022-11-06T01:52:26.878Z,1011.05
2022-11-06T01:53:26.871Z,1011.05
2022-11-06T01:54:26.861Z,1011.03
2022-11-06T01:55:26.862Z,1010.98
2022-11-06T01:56:26.851Z,1010.98
2022-11-06T01:57:26.841Z,1010.96
2022-11-06T01:58:26.813Z,1010.96
2022-11-06T01:59:26.809Z,1010.95
2022-11-06T02:00:26.816Z,1010.95
2022-11-06T02:01:27.004Z,1010.88
2022-11-06T02:02:27.006Z,1010.84
2022-11-06T02:03:26.760Z,1010.88
2022-11-06T02:04:26.774Z,1010.81
2022-11-06T02:05:26.755Z,1010.81
2022-11-06T02:06:26.732Z,1010.79
2022-11-06T02:07:26.726Z,1010.84
2022-11-06T02:08:26.710Z,1010.83
2022-11-06T02:09:26.698Z,1010.84
2022-11-06T02:10:26.698Z,1010.84
2022-11-06T02:11:26.674Z,1010.83
2022-11-06T02:12:26.658Z,1010.82
2022-11-06T02:13:26.649Z,1010.84
2022-11-06T02:14:26.643Z,1010.81
2022-11-06T02:15:26.643Z,1010.82
2022-11-06T02:16:26.618Z,1010.79
2022-11-06T02:17:26.605Z,1010.83
2022-11-06T02:18:26.590Z,1010.82
2022-11-06T02:19:26.575Z,1010.83
2022-11-06T02:20:26.704Z,1010.83
2022-11-06T02:21:26.562Z,1010.84
2022-11-06T02:22:26.542Z,1010.84
2022-11-06T02:23:26.540Z,1010.84
2022-11-06T02:24:26.530Z,1010.82
2022-11-06T02:25:26.526Z,1010.85
2022-11-06T02:26:26.499Z,1010.83
2022-11-06T02:27:26.490Z,1010.83
2022-11-06T02:28:26.484Z,1010.83
2022-11-06T02:29:26.468Z,1010.84
2022-11-06T02:30:26.473Z,1010.84
2022-11-06T02:31:26.502Z,1010.88
2022-11-06T02:32:26.439Z,1010.85
2022-11-06T02:33:26.419Z,1010.89
2022-11-06T02:34:26.416Z,1010.88
2022-11-06T02:35:26.411Z,1010.86
2022-11-06T02:36:26.452Z,1010.92
2022-11-06T02:37:26.382Z,1010.90
2022-11-06T02:38:26.364Z,1010.91
2022-11-06T02:39:26.365Z,1010.88
2022-11-06T02:40:26.347Z,1010.92
2022-11-06T02:41:26.354Z,1010.90
2022-11-06T02:42:26.318Z,1010.91
2022-11-06T02:43:26.315Z,1010.93
2022-11-06T02:44:26.302Z,1010.92
2022-11-06T02:45:26.292Z,1010.89
2022-11-06T02:46:26.288Z,1010.92
2022-11-06T02:47:26.268Z,1010.90
2022-11-06T02:48:26.251Z,1010.92
2022-11-06T02:49:26.248Z,1010.89
2022-11-06T02:50:26.245Z,1010.90
2022-11-06T02:51:26.240Z,1010.84
2022-11-06T02:52:26.233Z,1010.81
2022-11-06T02:53:26.196Z,1010.77
2022-11-06T02:54:26.194Z,1010.75
2022-11-06T02:55:26.178Z,1010.75
2022-11-06T02:56:26.180Z,1010.71
2022-11-06T02:57:26.151Z,1010.70
2022-11-06T02:58:26.153Z,1010.67
2022-11-06T02:59:26.126Z,1010.67
2022-11-06T03:00:26.133Z,1010.66
2022-11-06T03:01:26.209Z,1010.71
2022-11-06T03:02:26.299Z,1010.71
2022-11-06T03:03:26.093Z,1010.71
2022-11-06T03:04:26.070Z,1010.74
2022-11-06T03:05:26.061Z,1010.75
2022-11-06T03:06:26.065Z,1010.76
2022-11-06T03:07:26.046Z,1010.77
2022-11-06T03:08:26.055Z,1010.77
2022-11-06T03:09:26.020Z,1010.72
2022-11-06T03:10:26.002Z,1010.72
2022-11-06T03:11:26.007Z,1010.69
2022-11-06T03:12:25.986Z,1010.68
2022-11-06T03:13:25.984Z,1010.71
2022-11-06T03:14:25.968Z,1010.72
2022-11-06T03:15:25.955Z,1010.68
2022-11-06T03:16:25.967Z,1010.68
2022-11-06T03:17:25.923Z,1010.72
2022-11-06T03:18:25.924Z,1010.69
2022-11-06T03:19:25.906Z,1010.68
2022-11-06T03:20:25.900Z,1010.66
2022-11-06T03:21:25.906Z,1010.69
2022-11-06T03:22:25.865Z,1010.65
2022-11-06T03:23:25.863Z,1010.67
2022-11-06T03:24:30.861Z,1010.59
2022-11-06T03:25:26.844Z,1010.48
2022-11-06T03:26:25.844Z,1010.48
2022-11-06T03:27:25.818Z,1010.45
2022-11-06T03:28:25.800Z,1010.41
2022-11-06T03:29:25.793Z,1010.42
2022-11-06T03:30:25.779Z,1010.39
2022-11-06T03:31:25.789Z,1010.45
2022-11-06T03:32:25.755Z,1010.46
2022-11-06T03:33:25.749Z,1010.52
2022-11-06T03:34:25.733Z,1010.52
2022-11-06T03:35:25.726Z,1010.54
2022-11-06T03:36:25.734Z,1010.50
2022-11-06T03:37:25.714Z,1010.54
2022-11-06T03:38:25.703Z,1010.47
2022-11-06T03:39:25.677Z,1010.59
2022-11-06T03:40:25.686Z,1010.57
2022-11-06T03:41:25.684Z,1010.66
2022-11-06T03:42:25.650Z,1010.70
2022-11-06T03:43:25.645Z,1010.68
2022-11-06T03:44:25.632Z,1010.68
2022-11-06T03:45:25.618Z,1010.65
2022-11-06T03:46:25.597Z,1010.66
2022-11-06T03:47:25.610Z,1010.67
2022-11-06T03:48:25.588Z,1010.69
2022-11-06T03:49:25.577Z,1010.72
2022-11-06T03:50:25.577Z,1010.80
2022-11-06T03:51:25.545Z,1010.80
2022-11-06T03:52:25.551Z,1010.82
2022-11-06T03:53:25.547Z,1010.83
2022-11-06T03:54:25.519Z,1010.77
2022-11-06T03:55:25.501Z,1010.77
2022-11-06T03:56:25.516Z,1010.74
2022-11-06T03:57:25.490Z,1010.74
2022-11-06T03:58:25.507Z,1010.71
2022-11-06T03:59:25.456Z,1010.70
2022-11-06T04:00:25.474Z,1010.68
2022-11-06T04:01:25.568Z,1010.72
2022-11-06T04:02:25.585Z,1010.74
2022-11-06T04:03:25.409Z,1010.74
2022-11-06T04:04:25.402Z,1010.76
2022-11-06T04:05:25.394Z,1010.76
2022-11-06T04:06:25.386Z,1010.75
2022-11-06T04:07:25.376Z,1010.76
2022-11-06T04:08:25.352Z,1010.76
2022-11-06T04:09:25.341Z,1010.78
2022-11-06T04:10:25.342Z,1010.75
2022-11-06T04:11:25.320Z,1010.74
2022-11-06T04:12:25.344Z,1010.72
2022-11-06T04:13:25.294Z,1010.68
2022-11-06T04:14:25.320Z,1010.67
2022-11-06T04:15:25.277Z,1010.64
2022-11-06T04:16:25.289Z,1010.63
2022-11-06T04:17:25.265Z,1010.63
2022-11-06T04:18:25.253Z,1010.66
2022-11-06T04:19:25.247Z,1010.67
2022-11-06T04:20:25.233Z,1010.67
2022-11-06T04:21:25.206Z,1010.64
2022-11-06T04:22:25.218Z,1010.64
2022-11-06T04:23:25.203Z,1010.59
2022-11-06T04:24:25.177Z,1010.58
2022-11-06T04:25:25.168Z,1010.58
2022-11-06T04:26:25.162Z,1010.58
2022-11-06T04:27:25.157Z,1010.62
2022-11-06T04:28:25.163Z,1010.62
2022-11-06T04:29:25.116Z,1010.63
2022-11-06T04:30:25.107Z,1010.61
2022-11-06T04:31:25.102Z,1010.56
2022-11-06T04:32:25.103Z,1010.56
2022-11-06T04:33:25.075Z,1010.55
2022-11-06T04:34:25.068Z,1010.58
2022-11-06T04:35:25.052Z,1010.55
2022-11-06T04:36:25.050Z,1010.54
2022-11-06T04:37:25.047Z,1010.55
2022-11-06T04:38:25.042Z,1010.55
2022-11-06T04:39:25.027Z,1010.51
2022-11-06T04:40:25.002Z,1010.46
2022-11-06T04:41:24.999Z,1010.48
2022-11-06T04:42:24.987Z,1010.47
2022-11-06T04:43:24.969Z,1010.44
2022-11-06T04:44:24.978Z,1010.42
2022-11-06T04:45:24.954Z,1010.40
2022-11-06T04:46:24.944Z,1010.37
2022-11-06T04:47:24.929Z,1010.36
2022-11-06T04:48:24.913Z,1010.31
2022-11-06T04:49:24.900Z,1010.33
2022-11-06T04:50:24.882Z,1010.34
2022-11-06T04:51:24.876Z,1010.31
2022-11-06T04:52:24.887Z,1010.25
2022-11-06T04:53:24.854Z,1010.22
2022-11-06T04:54:24.862Z,1010.20
2022-11-06T04:55:24.828Z,1010.15
2022-11-06T04:56:25.871Z,1010.13
2022-11-06T04:57:24.819Z,1010.13
2022-11-06T04:58:24.814Z,1010.12
2022-11-06T04:59:24.788Z,1010.15
2022-11-06T05:00:24.801Z,1010.11
2022-11-06T05:01:24.905Z,1010.08
2022-11-06T05:02:24.903Z,1010.08
2022-11-06T05:03:24.751Z,1010.11
2022-11-06T05:04:24.732Z,1010.01
2022-11-06T05:05:24.723Z,1009.99
2022-11-06T05:06:29.567Z,1009.99
2022-11-06T05:07:25.698Z,1010.01
2022-11-06T05:08:24.694Z,1009.98
2022-11-06T05:09:24.684Z,1009.99
2022-11-06T05:10:24.660Z,1009.94
2022-11-06T05:11:24.655Z,1009.93
2022-11-06T05:12:24.643Z,1009.89
2022-11-06T05:13:24.648Z,1009.82
2022-11-06T05:14:24.626Z,1009.79
2022-11-06T05:15:24.600Z,1009.78
2022-11-06T05:16:24.621Z,1009.81
2022-11-06T05:17:24.580Z,1009.83
2022-11-06T05:18:24.588Z,1009.86
2022-11-06T05:19:24.561Z,1009.79
2022-11-06T05:20:24.546Z,1009.82
2022-11-06T05:21:24.543Z,1009.78
2022-11-06T05:22:24.532Z,1009.77
2022-11-06T05:23:24.546Z,1009.76
2022-11-06T05:24:24.526Z,1009.78
2022-11-06T05:25:24.501Z,1009.72
2022-11-06T05:26:24.479Z,1009.73
2022-11-06T05:27:24.467Z,1009.72
2022-11-06T05:28:24.472Z,1009.67
2022-11-06T05:29:24.447Z,1009.62
2022-11-06T05:30:24.441Z,1009.62
2022-11-06T05:31:24.428Z,1009.57
2022-11-06T05:32:24.445Z,1009.56
2022-11-06T05:33:24.417Z,1009.52
2022-11-06T05:34:24.390Z,1009.48
2022-11-06T05:35:24.389Z,1009.43
2022-11-06T05:36:24.378Z,1009.46
2022-11-06T05:37:24.359Z,1009.43
2022-11-06T05:38:24.399Z,1009.45
2022-11-06T05:39:24.336Z,1009.45
2022-11-06T05:40:24.330Z,1009.48
2022-11-06T05:41:24.308Z,1009.48
2022-11-06T05:42:24.305Z,1009.47
2022-11-06T05:43:24.284Z,1009.47
2022-11-06T05:44:24.298Z,1009.48
2022-11-06T05:45:24.271Z,1009.45
2022-11-06T05:46:47.210Z,1009.40
2022-11-06T05:47:25.259Z,1009.40
2022-11-06T05:48:24.265Z,1009.35
2022-11-06T05:49:24.247Z,1009.35
2022-11-06T05:50:24.210Z,1009.32
2022-11-06T05:51:24.199Z,1009.32
2022-11-06T05:52:24.195Z,1009.28
2022-11-06T05:53:24.203Z,1009.22
2022-11-06T05:54:24.183Z,1009.18
2022-11-06T05:55:24.160Z,1009.17
2022-11-06T05:56:24.158Z,1009.16
2022-11-06T05:57:24.137Z,1009.15
2022-11-06T05:58:24.139Z,1009.13
2022-11-06T05:59:24.111Z,1009.15
2022-11-06T06:00:24.105Z,1009.16
2022-11-06T06:01:24.154Z,1009.16
2022-11-06T06:02:24.171Z,1009.15
2022-11-06T06:03:24.095Z,1009.16
2022-11-06T06:04:24.073Z,1009.18
2022-11-06T06:05:24.051Z,1009.17
2022-11-06T06:06:24.041Z,1009.20
2022-11-06T06:07:24.019Z,1009.20
2022-11-06T06:08:24.024Z,1009.19
2022-11-06T06:09:24.005Z,1009.22
2022-11-06T06:10:24.000Z,1009.18
2022-11-06T06:11:23.972Z,1009.18
2022-11-06T06:12:23.973Z,1009.15
2022-11-06T06:13:23.966Z,1009.19
2022-11-06T06:14:23.949Z,1009.11
2022-11-06T06:15:23.936Z,1009.18
2022-11-06T06:16:23.928Z,1009.14
2022-11-06T06:17:23.913Z,1009.13
2022-11-06T06:18:23.919Z,1009.10
2022-11-06T06:19:23.891Z,1009.06
2022-11-06T06:20:23.902Z,1009.04
2022-11-06T06:21:23.867Z,1009.10
2022-11-06T06:22:23.855Z,1009.10
2022-11-06T06:23:23.868Z,1009.08
2022-11-06T06:24:23.882Z,1009.07
2022-11-06T06:25:23.927Z,1009.04
2022-11-06T06:26:23.812Z,1009.01
2022-11-06T06:27:23.802Z,1009.00
2022-11-06T06:28:23.804Z,1008.98
2022-11-06T06:29:23.783Z,1008.96
2022-11-06T06:30:23.781Z,1008.93
2022-11-06T06:31:23.748Z,1008.93
2022-11-06T06:32:23.739Z,1008.91
2022-11-06T06:33:23.746Z,1008.91
2022-11-06T06:34:23.720Z,1008.94
2022-11-06T06:35:23.714Z,1008.95
2022-11-06T06:36:23.727Z,1008.96
2022-11-06T06:37:23.681Z,1008.99
2022-11-06T06:38:23.692Z,1008.99
2022-11-06T06:39:23.672Z,1009.02
2022-11-06T06:40:23.656Z,1009.05
2022-11-06T06:41:23.641Z,1009.07
2022-11-06T06:42:28.677Z,1009.07
2022-11-06T06:43:24.636Z,1009.10
2022-11-06T06:44:23.615Z,1009.12
2022-11-06T06:45:23.607Z,1009.09
2022-11-06T06:46:23.583Z,1009.10
2022-11-06T06:47:23.575Z,1009.12
2022-11-06T06:48:23.585Z,1009.12
2022-11-06T06:49:23.559Z,1009.09
2022-11-06T06:50:23.548Z,1009.14
2022-11-06T06:51:24.304Z,1009.12
2022-11-06T06:52:23.622Z,1009.15
2022-11-06T06:53:23.517Z,1009.14
2022-11-06T06:54:23.503Z,1009.19
2022-11-06T06:55:23.488Z,1009.19
2022-11-06T06:56:23.478Z,1009.18
2022-11-06T06:57:23.456Z,1009.20
2022-11-06T06:58:23.849Z,1009.22
2022-11-06T06:59:23.436Z,1009.21
2022-11-06T07:00:23.435Z,1009.23
2022-11-06T07:01:23.585Z,1009.23
2022-11-06T07:02:23.472Z,1009.25
2022-11-06T07:03:23.407Z,1009.28
2022-11-06T07:04:23.388Z,1009.31
2022-11-06T07:05:23.367Z,1009.32
2022-11-06T07:06:23.368Z,1009.38
2022-11-06T07:07:23.357Z,1009.35
2022-11-06T07:08:23.380Z,1009.35
2022-11-06T07:09:23.331Z,1009.30
2022-11-06T07:10:23.326Z,1009.31
2022-11-06T07:11:23.313Z,1009.29
2022-11-06T07:12:23.301Z,1009.29
2022-11-06T07:13:23.304Z,1009.26
2022-11-06T07:14:23.276Z,1009.29
2022-11-06T07:15:23.265Z,1009.24
2022-11-06T07:16:23.245Z,1009.23
2022-11-06T07:17:23.236Z,1009.24
2022-11-06T07:18:23.240Z,1009.21
2022-11-06T07:19:23.219Z,1009.14
2022-11-06T07:20:23.204Z,1009.14
2022-11-06T07:21:23.198Z,1009.14
2022-11-06T07:22:30.795Z,1009.15
2022-11-06T07:23:24.183Z,1009.12
2022-11-06T07:24:23.181Z,1009.12
2022-11-06T07:25:23.155Z,1009.13
2022-11-06T07:26:23.133Z,1009.13
2022-11-06T07:27:23.136Z,1009.13
2022-11-06T07:28:23.134Z,1009.09
2022-11-06T07:29:23.106Z,1009.07
2022-11-06T07:30:23.098Z,1009.08
2022-11-06T07:31:23.084Z,1009.13
2022-11-06T07:32:23.077Z,1009.17
2022-11-06T07:33:23.076Z,1009.18
2022-11-06T07:34:23.044Z,1009.20
2022-11-06T07:35:23.030Z,1009.19
2022-11-06T07:36:23.022Z,1009.17
2022-11-06T07:37:23.021Z,1009.15
2022-11-06T07:38:23.016Z,1009.17
2022-11-06T07:39:23.002Z,1009.21
2022-11-06T07:40:23.014Z,1009.21
2022-11-06T07:41:22.965Z,1009.17
2022-11-06T07:42:22.966Z,1009.17
2022-11-06T07:43:22.973Z,1009.21
2022-11-06T07:44:22.932Z,1009.13
2022-11-06T07:45:22.921Z,1009.15
2022-11-06T07:46:22.919Z,1009.14
2022-11-06T07:47:22.906Z,1009.13
2022-11-06T07:48:22.897Z,1009.19
2022-11-06T07:49:22.909Z,1009.15
2022-11-06T07:50:22.865Z,1009.14
2022-11-06T07:51:22.858Z,1009.15
2022-11-06T07:52:22.851Z,1009.19
2022-11-06T07:53:22.843Z,1009.14
2022-11-06T07:54:22.855Z,1009.18
2022-11-06T07:55:22.811Z,1009.13
2022-11-06T07:56:22.821Z,1009.14
2022-11-06T07:57:22.792Z,1009.13
2022-11-06T07:58:22.784Z,1009.12
2022-11-06T07:59:22.774Z,1009.11
2022-11-06T08:00:22.759Z,1009.04
2022-11-06T08:01:22.981Z,1009.07
2022-11-06T08:02:22.781Z,1009.08
2022-11-06T08:03:22.715Z,1009.07
2022-11-06T08:04:22.734Z,1009.09
2022-11-06T08:05:22.692Z,1009.07
2022-11-06T08:06:22.689Z,1009.07
2022-11-06T08:07:22.673Z,1009.01
2022-11-06T08:08:22.666Z,1008.96
2022-11-06T08:09:22.664Z,1008.92
2022-11-06T08:10:22.641Z,1008.88
2022-11-06T08:11:22.632Z,1008.84
2022-11-06T08:12:22.639Z,1008.91
2022-11-06T08:13:22.609Z,1008.90
2022-11-06T08:14:22.608Z,1008.97
2022-11-06T08:15:22.587Z,1008.89
2022-11-06T08:16:22.569Z,1008.94
2022-11-06T08:17:22.560Z,1008.88
2022-11-06T08:18:22.558Z,1008.83
2022-11-06T08:19:22.556Z,1008.81
2022-11-06T08:20:22.556Z,1008.78
2022-11-06T08:21:22.514Z,1008.79
2022-11-06T08:22:22.510Z,1008.80
2022-11-06T08:23:22.508Z,1008.82
2022-11-06T08:24:22.497Z,1008.86
2022-11-06T08:25:22.473Z,1008.88
2022-11-06T08:26:22.457Z,1008.82
2022-11-06T08:27:22.455Z,1008.83
2022-11-06T08:28:22.453Z,1008.77
2022-11-06T08:29:22.454Z,1008.78
2022-11-06T08:30:22.416Z,1008.76
2022-11-06T08:31:22.408Z,1008.70
2022-11-06T08:32:22.403Z,1008.66
2022-11-06T08:33:22.393Z,1008.67
2022-11-06T08:34:22.386Z,1008.65
2022-11-06T08:35:22.365Z,1008.69
2022-11-06T08:36:22.344Z,1008.65
2022-11-06T08:37:22.336Z,1008.65
2022-11-06T08:38:22.346Z,1008.60
2022-11-06T08:39:22.333Z,1008.63
2022-11-06T08:40:26.470Z,1008.63
2022-11-06T08:41:23.293Z,1008.61
2022-11-06T08:42:22.281Z,1008.60
2022-11-06T08:43:22.271Z,1008.61
2022-11-06T08:44:22.290Z,1008.57
2022-11-06T08:45:22.253Z,1008.57
2022-11-06T08:46:22.232Z,1008.59
2022-11-06T08:47:22.226Z,1008.58
2022-11-06T08:48:22.212Z,1008.63
2022-11-06T08:49:22.219Z,1008.60
2022-11-06T08:50:22.201Z,1008.59
2022-11-06T08:51:22.192Z,1008.63
2022-11-06T08:52:22.164Z,1008.60
2022-11-06T08:53:22.182Z,1008.60
2022-11-06T08:54:22.158Z,1008.58
2022-11-06T08:55:22.136Z,1008.57
2022-11-06T08:56:22.126Z,1008.55
2022-11-06T08:57:22.114Z,1008.53
2022-11-06T08:58:22.096Z,1008.54
2022-11-06T08:59:22.108Z,1008.49
2022-11-06T09:00:22.093Z,1008.51
2022-11-06T09:01:22.202Z,1008.53
2022-11-06T09:02:22.090Z,1008.53
2022-11-06T09:03:22.047Z,1008.53
2022-11-06T09:04:22.041Z,1008.51
2022-11-06T09:05:22.026Z,1008.47
2022-11-06T09:06:22.010Z,1008.45
2022-11-06T09:07:22.001Z,1008.38
2022-11-06T09:08:21.983Z,1008.39
2022-11-06T09:09:21.992Z,1008.34
2022-11-06T09:10:21.967Z,1008.37
2022-11-06T09:11:21.955Z,1008.32
2022-11-06T09:12:21.944Z,1008.35
2022-11-06T09:13:21.938Z,1008.34
2022-11-06T09:14:22.009Z,1008.31
2022-11-06T09:15:21.904Z,1008.35
2022-11-06T09:16:21.916Z,1008.29
2022-11-06T09:17:21.891Z,1008.23
2022-11-06T09:18:21.870Z,1008.24
2022-11-06T09:19:22.005Z,1008.20
2022-11-06T09:20:21.857Z,1008.21
2022-11-06T09:21:21.848Z,1008.23
2022-11-06T09:22:21.827Z,1008.17
2022-11-06T09:23:21.817Z,1008.18
2022-11-06T09:24:37.515Z,1008.19
2022-11-06T09:25:22.798Z,1008.12
2022-11-06T09:26:21.790Z,1008.20
2022-11-06T09:27:21.777Z,1008.10
2022-11-06T09:28:21.767Z,1008.05
2022-11-06T09:29:21.764Z,1008.07
2022-11-06T09:30:21.745Z,1008.06
2022-11-06T09:31:21.731Z,1008.04
2022-11-06T09:32:21.812Z,1008.00
2022-11-06T09:33:21.841Z,1008.02
2022-11-06T09:34:21.693Z,1007.94
2022-11-06T09:35:21.705Z,1007.89
2022-11-06T09:36:21.668Z,1007.86
2022-11-06T09:37:21.658Z,1007.91
2022-11-06T09:38:21.645Z,1007.90
2022-11-06T09:39:21.644Z,1007.89
2022-11-06T09:40:21.645Z,1007.88
2022-11-06T09:41:21.612Z,1007.86
2022-11-06T09:42:21.600Z,1007.85
2022-11-06T09:43:43.117Z,1007.87
2022-11-06T09:44:22.581Z,1007.91
2022-11-06T09:45:21.580Z,1007.92
2022-11-06T09:46:21.607Z,1007.94
2022-11-06T09:47:21.544Z,1007.89
2022-11-06T09:48:21.554Z,1007.87
2022-11-06T09:49:21.519Z,1007.82
2022-11-06T09:50:21.525Z,1007.82
2022-11-06T09:51:21.509Z,1007.69
2022-11-06T09:52:21.498Z,1007.72
2022-11-06T09:53:21.476Z,1007.78
2022-11-06T09:54:21.465Z,1007.78
2022-11-06T09:55:21.471Z,1007.74
2022-11-06T09:56:21.449Z,1007.73
2022-11-06T09:57:21.442Z,1007.69
2022-11-06T09:58:21.425Z,1007.73
2022-11-06T09:59:21.410Z,1007.72
2022-11-06T10:00:21.428Z,1007.67
2022-11-06T10:01:26.904Z,1007.67
2022-11-06T10:02:22.520Z,1007.65
2022-11-06T10:03:21.490Z,1007.64
2022-11-06T10:04:21.456Z,1007.60
2022-11-06T10:05:21.349Z,1007.63
2022-11-06T10:06:21.345Z,1007.63
2022-11-06T10:07:21.318Z,1007.63
2022-11-06T10:08:21.358Z,1007.65
2022-11-06T10:09:21.307Z,1007.65
2022-11-06T10:10:21.315Z,1007.55
2022-11-06T10:11:21.289Z,1007.60
2022-11-06T10:12:21.262Z,1007.57
2022-11-06T10:13:21.292Z,1007.60
2022-11-06T10:14:21.245Z,1007.61
2022-11-06T10:15:21.254Z,1007.57
2022-11-06T10:16:21.239Z,1007.53
2022-11-06T10:17:21.214Z,1007.54
2022-11-06T10:18:21.194Z,1007.45
2022-11-06T10:19:21.192Z,1007.47
2022-11-06T10:20:26.886Z,1007.43
2022-11-06T10:21:22.178Z,1007.47
2022-11-06T10:22:21.155Z,1007.47
2022-11-06T10:23:21.138Z,1007.46
2022-11-06T10:24:21.142Z,1007.47
2022-11-06T10:25:21.118Z,1007.49
2022-11-06T10:26:21.120Z,1007.51
2022-11-06T10:27:21.099Z,1007.48
2022-11-06T10:28:21.079Z,1007.44
2022-11-06T10:29:21.072Z,1007.47
2022-11-06T10:30:21.065Z,1007.42
2022-11-06T10:31:21.075Z,1007.39
2022-11-06T10:32:21.134Z,1007.38
2022-11-06T10:33:21.026Z,1007.36
2022-11-06T10:34:21.179Z,1007.36
2022-11-06T10:35:21.011Z,1007.40
2022-11-06T10:36:21.025Z,1007.34
2022-11-06T10:37:20.991Z,1007.38
2022-11-06T10:38:20.976Z,1007.36
2022-11-06T10:39:20.959Z,1007.35
2022-11-06T10:40:21.068Z,1007.32
2022-11-06T10:41:20.954Z,1007.28
2022-11-06T10:42:20.923Z,1007.30
2022-11-06T10:43:20.914Z,1007.26
2022-11-06T10:44:20.906Z,1007.19
2022-11-06T10:45:20.897Z,1007.22
2022-11-06T10:46:20.901Z,1007.17
2022-11-06T10:47:20.878Z,1007.18
2022-11-06T10:48:22.855Z,1007.18
2022-11-06T10:49:21.850Z,1007.07
2022-11-06T10:50:20.833Z,1007.03
2022-11-06T10:51:20.844Z,1007.09
2022-11-06T10:52:20.836Z,1007.03
2022-11-06T10:53:20.810Z,1006.99
2022-11-06T10:54:20.800Z,1006.98
2022-11-06T10:55:20.783Z,1007.01
2022-11-06T10:56:21.426Z,1006.91
2022-11-06T10:57:20.757Z,1006.85
2022-11-06T10:58:20.748Z,1006.85
2022-11-06T10:59:20.732Z,1006.85
2022-11-06T11:00:20.840Z,1006.79
2022-11-06T11:01:20.861Z,1006.74
2022-11-06T11:02:20.823Z,1006.75
2022-11-06T11:03:20.686Z,1006.70
2022-11-06T11:04:20.682Z,1006.80
2022-11-06T11:05:20.676Z,1006.74
2022-11-06T11:06:20.679Z,1006.71
2022-11-06T11:07:21.915Z,1006.74
2022-11-06T11:08:20.660Z,1006.69
2022-11-06T11:09:20.620Z,1006.77
2022-11-06T11:10:20.621Z,1006.75
2022-11-06T11:11:20.616Z,1006.73
2022-11-06T11:12:20.591Z,1006.74
2022-11-06T11:13:20.580Z,1006.67
2022-11-06T11:14:20.573Z,1006.67
2022-11-06T11:15:20.554Z,1006.67
2022-11-06T11:16:20.563Z,1006.63
2022-11-06T11:17:20.529Z,1006.61
2022-11-06T11:18:20.520Z,1006.55
2022-11-06T11:19:20.511Z,1006.55
2022-11-06T11:20:20.502Z,1006.49
2022-11-06T11:21:20.505Z,1006.47
2022-11-06T11:22:20.474Z,1006.48
2022-11-06T11:23:20.611Z,1006.51
2022-11-06T11:24:20.493Z,1006.50
2022-11-06T11:25:20.447Z,1006.52
2022-11-06T11:26:20.448Z,1006.56
2022-11-06T11:27:20.421Z,1006.49
2022-11-06T11:28:20.414Z,1006.52
2022-11-06T11:29:20.405Z,1006.48
2022-11-06T11:30:20.390Z,1006.46
2022-11-06T11:31:20.401Z,1006.47
2022-11-06T11:32:20.369Z,1006.43
2022-11-06T11:33:20.358Z,1006.39
2022-11-06T11:34:20.348Z,1006.36
2022-11-06T11:35:20.328Z,1006.32
2022-11-06T11:36:20.332Z,1006.31
2022-11-06T11:37:20.306Z,1006.32
2022-11-06T11:38:20.293Z,1006.28
2022-11-06T11:39:20.285Z,1006.33
2022-11-06T11:40:20.296Z,1006.36
2022-11-06T11:41:20.278Z,1006.26
2022-11-06T11:42:20.257Z,1006.18
2022-11-06T11:43:20.241Z,1006.21
2022-11-06T11:44:20.231Z,1006.14
2022-11-06T11:45:20.233Z,1006.11
2022-11-06T11:46:20.229Z,1006.04
2022-11-06T11:47:20.202Z,1006.03
2022-11-06T11:48:20.191Z,1005.97
2022-11-06T11:49:20.180Z,1005.98
2022-11-06T11:50:20.168Z,1005.94
2022-11-06T11:51:20.174Z,1005.86
2022-11-06T11:52:20.144Z,1005.83
2022-11-06T11:53:20.130Z,1005.75
2022-11-06T11:54:20.112Z,1005.76
2022-11-06T11:55:20.116Z,1005.69
2022-11-06T11:56:42.451Z,1005.65
2022-11-06T11:57:21.081Z,1005.70
2022-11-06T11:58:20.077Z,1005.70
2022-11-06T11:59:20.062Z,1005.65
2022-11-06T12:00:20.055Z,1005.65
2022-11-06T12:01:20.096Z,1005.70
2022-11-06T12:02:26.355Z,1005.72
2022-11-06T12:03:21.115Z,1005.64
2022-11-06T12:04:20.008Z,1005.64
2022-11-06T12:05:19.996Z,1005.66